Time;durP1;ratioP1;P1;durP2;ratioP2;P2;SDS_P1;SDS_P2;PMS_P1;PMS_P2;Temp;Humidity;BMP_temperature;BMP_pressure;BME280_temperature;BME280_humidity;BME280_pressure;Samples;Min_cycle;Max_cycle;Signal;HPM_P1;HPM_P2
2022/10/01 00:01:14;;;;;;;22.50;15.38;;;18.50;89.20;;;;;;5066000;28;20032;-78
2022/10/01 00:03:41;;;;;;;22.60;16.20;;;18.50;89.30;;;;;;5077845;28;20529;-78
2022/10/01 00:06:11;;;;;;;22.30;16.13;;;18.50;89.20;;;;;;5067574;28;20414;-77
2022/10/01 00:08:39;;;;;;;22.88;16.17;;;18.50;89.20;;;;;;5066732;28;20040;-78
2022/10/01 00:11:12;;;;;;;21.27;15.52;;;18.50;89.30;;;;;;5066218;28;20032;-78
2022/10/01 00:13:38;;;;;;;21.27;15.65;;;18.50;89.30;;;;;;5081490;28;20063;-78
2022/10/01 00:16:07;;;;;;;24.52;16.90;;;18.50;89.40;;;;;;5066464;28;20117;-77
2022/10/01 00:18:41;;;;;;;26.17;17.08;;;18.50;89.40;;;;;;5082529;28;20521;-77
2022/10/01 00:21:09;;;;;;;24.10;16.30;;;18.50;89.40;;;;;;5066400;28;20029;-78
2022/10/01 00:23:36;;;;;;;23.80;16.20;;;18.50;89.50;;;;;;5050660;28;20033;-79
2022/10/01 00:26:10;;;;;;;31.42;17.25;;;18.50;89.60;;;;;;5066051;28;20684;-79
2022/10/01 00:28:36;;;;;;;30.40;16.75;;;18.50;89.60;;;;;;5049121;28;20454;-79
2022/10/01 00:31:02;;;;;;;26.40;17.05;;;18.50;89.60;;;;;;5065017;28;20033;-77
2022/10/01 00:33:28;;;;;;;24.08;15.98;;;18.50;89.60;;;;;;5077968;28;20028;-78
2022/10/01 00:35:54;;;;;;;24.38;17.13;;;18.50;89.50;;;;;;5066699;28;20383;-78
2022/10/01 00:38:20;;;;;;;27.25;17.70;;;18.50;89.50;;;;;;5065567;28;20073;-78
2022/10/01 00:40:45;;;;;;;24.98;17.63;;;18.50;89.50;;;;;;5065941;28;20602;-78
2022/10/01 00:43:30;;;;;;;26.70;18.02;;;18.50;89.60;;;;;;5065173;28;20036;-78
2022/10/01 00:46:20;;;;;;;28.65;17.45;;;18.50;89.80;;;;;;5065887;28;20043;-78
2022/10/01 00:48:57;;;;;;;28.08;17.58;;;18.50;89.80;;;;;;5065902;28;20028;-78
2022/10/01 00:51:25;;;;;;;26.83;17.75;;;18.50;89.60;;;;;;5065142;28;20040;-78
2022/10/01 00:53:55;;;;;;;28.05;17.25;;;18.50;89.50;;;;;;5065439;28;20048;-78
2022/10/01 00:56:21;;;;;;;31.48;18.15;;;18.50;89.40;;;;;;5081194;28;20036;-78
2022/10/01 00:58:50;;;;;;;28.77;17.88;;;18.50;89.50;;;;;;5064983;28;20102;-78
2022/10/01 01:01:16;;;;;;;31.10;18.10;;;18.50;89.50;;;;;;5097994;28;20479;-78
2022/10/01 01:03:42;;;;;;;28.33;17.60;;;18.50;89.60;;;;;;5066463;28;20067;-78
2022/10/01 01:06:08;;;;;;;30.05;17.77;;;18.50;89.70;;;;;;5059143;28;20495;-77
2022/10/01 01:08:34;;;;;;;29.42;18.10;;;18.50;89.80;;;;;;5064651;28;20090;-77
2022/10/01 01:11:09;;;;;;;29.50;18.95;;;18.50;89.60;;;;;;5047982;28;20616;-77
2022/10/01 01:13:56;;;;;;;35.90;19.08;;;18.40;89.60;;;;;;5077393;28;20044;-77
2022/10/01 01:16:32;;;;;;;30.77;18.38;;;18.40;89.60;;;;;;5066303;28;20061;-78
2022/10/01 01:19:11;;;;;;;29.98;17.95;;;18.40;89.60;;;;;;5076383;28;20284;-78
2022/10/01 01:21:44;;;;;;;31.13;17.65;;;18.40;89.70;;;;;;5065512;28;20402;-78
2022/10/01 01:24:19;;;;;;;31.52;18.95;;;18.40;89.60;;;;;;5065384;28;20529;-78
2022/10/01 01:26:57;;;;;;;28.73;18.00;;;18.40;89.60;;;;;;5065304;28;20028;-77
2022/10/01 01:29:36;;;;;;;33.05;18.42;;;18.40;89.60;;;;;;5065174;28;20045;-77
2022/10/01 01:32:07;;;;;;;30.35;18.58;;;18.40;89.60;;;;;;5064966;28;20147;-78
2022/10/01 01:34:36;;;;;;;30.17;18.13;;;18.40;89.70;;;;;;5064239;28;20566;-78
2022/10/01 01:37:10;;;;;;;26.92;17.55;;;18.40;89.60;;;;;;5064411;28;20048;-77
2022/10/01 01:39:40;;;;;;;32.30;18.55;;;18.40;89.80;;;;;;5065199;28;20048;-77
2022/10/01 01:42:12;;;;;;;30.08;18.80;;;18.40;89.80;;;;;;5063293;28;20107;-77
2022/10/01 01:44:42;;;;;;;30.65;17.67;;;18.40;89.80;;;;;;5063732;28;20086;-77
2022/10/01 01:47:10;;;;;;;29.77;18.48;;;18.40;89.80;;;;;;5062448;28;20034;-77
2022/10/01 01:49:38;;;;;;;30.88;18.10;;;18.40;89.80;;;;;;5097187;28;20039;-77
2022/10/01 01:52:04;;;;;;;29.38;18.25;;;18.30;89.80;;;;;;5063963;28;20143;-77
2022/10/01 01:54:31;;;;;;;25.45;18.05;;;18.40;90.00;;;;;;5064219;28;20159;-77
2022/10/01 01:56:58;;;;;;;30.63;18.45;;;18.30;90.00;;;;;;5058078;28;20550;-77
2022/10/01 01:59:26;;;;;;;31.25;19.10;;;18.40;90.00;;;;;;5063562;28;20037;-77
2022/10/01 02:01:51;;;;;;;30.05;18.92;;;18.40;90.00;;;;;;5063861;28;20047;-77
2022/10/01 02:04:24;;;;;;;34.10;19.55;;;18.40;90.00;;;;;;5063808;28;20028;-77
2022/10/01 02:07:15;;;;;;;31.15;19.98;;;18.40;90.00;;;;;;5047154;28;20035;-77
2022/10/01 02:09:43;;;;;;;28.90;18.23;;;18.40;90.10;;;;;;5080514;28;20041;-78
2022/10/01 02:12:29;;;;;;;28.17;18.42;;;18.40;90.10;;;;;;5096861;28;20535;-77
2022/10/01 02:15:10;;;;;;;26.13;18.35;;;18.40;90.10;;;;;;5077793;28;20041;-78
2022/10/01 02:18:10;;;;;;;25.52;18.60;;;18.40;90.10;;;;;;5063503;28;20040;-77
2022/10/01 02:20:44;;;;;;;27.83;18.67;;;18.40;90.10;;;;;;5021309;28;20113;-78
2022/10/01 02:23:27;;;;;;;26.35;18.00;;;18.40;90.10;;;;;;5063517;28;20052;-78
2022/10/01 02:25:58;;;;;;;27.45;17.85;;;18.40;90.10;;;;;;5063268;28;20037;-78
2022/10/01 02:28:24;;;;;;;26.52;17.88;;;18.40;90.10;;;;;;5062597;28;20040;-78
2022/10/01 02:30:56;;;;;;;27.60;17.88;;;18.40;90.10;;;;;;5064714;28;20037;-77
2022/10/01 02:33:29;;;;;;;28.33;18.00;;;18.40;90.10;;;;;;5080283;28;20025;-78
2022/10/01 02:35:58;;;;;;;26.95;17.45;;;18.40;90.10;;;;;;5063081;28;20131;-78
2022/10/01 02:38:25;;;;;;;28.30;18.15;;;18.40;90.10;;;;;;5061983;28;20043;-78
2022/10/01 02:40:54;;;;;;;31.63;19.02;;;18.40;90.10;;;;;;5063129;28;20522;-78
2022/10/01 02:43:47;;;;;;;32.30;19.20;;;18.40;90.20;;;;;;5063076;28;20081;-78
2022/10/01 02:46:20;;;;;;;26.27;17.67;;;18.40;90.20;;;;;;5063005;28;20044;-77
2022/10/01 02:48:47;;;;;;;28.92;18.83;;;18.40;90.10;;;;;;5046533;28;20033;-77
2022/10/01 02:51:45;;;;;;;28.80;18.55;;;18.40;90.10;;;;;;5063059;28;20487;-77
2022/10/01 02:54:53;;;;;;;29.27;19.85;;;18.40;90.20;;;;;;5019073;28;20515;-77
2022/10/01 02:57:23;;;;;;;30.88;18.52;;;18.40;90.20;;;;;;5062599;28;20058;-78
2022/10/01 02:59:50;;;;;;;26.80;18.05;;;18.40;90.20;;;;;;5062976;28;20057;-78
2022/10/01 03:02:17;;;;;;;27.88;18.65;;;18.40;90.20;;;;;;5062942;28;20060;-78
2022/10/01 03:04:43;;;;;;;30.52;19.05;;;18.30;90.10;;;;;;5063500;28;20136;-77
2022/10/01 03:07:09;;;;;;;31.50;18.45;;;18.40;90.20;;;;;;5056587;28;20480;-78
2022/10/01 03:09:35;;;;;;;28.02;17.83;;;18.30;90.20;;;;;;5062878;28;20040;-77
2022/10/01 03:12:01;;;;;;;31.10;19.05;;;18.40;90.20;;;;;;5063141;28;20064;-77
2022/10/01 03:14:28;;;;;;;28.83;17.98;;;18.30;90.20;;;;;;5064105;28;20046;-76
2022/10/01 03:16:54;;;;;;;31.30;19.52;;;18.40;90.20;;;;;;5064291;28;20041;-77
2022/10/01 03:19:20;;;;;;;31.70;19.58;;;18.30;90.20;;;;;;5063969;28;20041;-77
2022/10/01 03:21:47;;;;;;;33.65;20.20;;;18.30;90.20;;;;;;5063726;28;20518;-77
2022/10/01 03:24:13;;;;;;;28.67;19.40;;;18.30;90.20;;;;;;5064173;28;20036;-77
2022/10/01 03:26:38;;;;;;;33.80;19.20;;;18.40;90.30;;;;;;5062929;28;20037;-76
2022/10/01 03:29:05;;;;;;;31.20;19.77;;;18.40;90.30;;;;;;5079259;28;20162;-77
2022/10/01 03:31:31;;;;;;;32.30;18.13;;;18.30;90.30;;;;;;5063909;28;20037;-77
2022/10/01 03:33:59;;;;;;;32.03;19.10;;;18.30;90.30;;;;;;5096756;28;20036;-78
2022/10/01 03:36:26;;;;;;;28.83;18.80;;;18.40;90.30;;;;;;5066362;28;20025;-77
2022/10/01 03:38:52;;;;;;;26.50;17.60;;;18.30;90.30;;;;;;5067065;28;20493;-77
2022/10/01 03:41:18;;;;;;;36.15;20.10;;;18.40;90.30;;;;;;5067051;28;20181;-77
2022/10/01 03:43:44;;;;;;;39.47;20.60;;;18.40;90.30;;;;;;5048557;28;20038;-77
2022/10/01 03:46:10;;;;;;;31.35;19.13;;;18.40;90.20;;;;;;5066007;28;20102;-77
2022/10/01 03:48:36;;;;;;;31.85;18.63;;;18.30;90.20;;;;;;5067430;28;20499;-78
2022/10/01 03:51:03;;;;;;;35.50;19.50;;;18.30;90.20;;;;;;5066137;28;20048;-78
2022/10/01 03:53:30;;;;;;;30.52;19.42;;;18.30;90.30;;;;;;5065588;28;20067;-78
2022/10/01 03:55:57;;;;;;;34.33;19.45;;;18.30;90.30;;;;;;5066708;28;20529;-78
2022/10/01 03:58:23;;;;;;;35.15;20.38;;;18.30;90.30;;;;;;5066025;28;20048;-78
2022/10/01 04:00:50;;;;;;;34.88;20.83;;;18.30;90.30;;;;;;5078759;28;20032;-78
2022/10/01 04:03:17;;;;;;;35.70;20.77;;;18.30;90.30;;;;;;5067477;28;20039;-77
2022/10/01 04:05:44;;;;;;;33.75;19.50;;;18.30;90.30;;;;;;5067074;28;20037;-77
2022/10/01 04:08:11;;;;;;;36.22;20.50;;;18.30;90.30;;;;;;5066375;28;20035;-77
2022/10/01 04:10:37;;;;;;;34.45;19.80;;;18.30;90.30;;;;;;5066681;28;20037;-77
2022/10/01 04:13:04;;;;;;;34.55;19.50;;;18.30;90.30;;;;;;5065445;28;20830;-78
2022/10/01 04:15:31;;;;;;;34.45;21.02;;;18.30;90.40;;;;;;5067139;28;20031;-78
2022/10/01 04:17:58;;;;;;;34.47;19.92;;;18.30;90.40;;;;;;5067036;28;20109;-88
2022/10/01 04:20:24;;;;;;;35.20;20.17;;;18.30;90.40;;;;;;5065335;28;20047;-80
2022/10/01 04:22:50;;;;;;;32.22;20.58;;;18.30;90.40;;;;;;5066342;28;20037;-81
2022/10/01 04:25:15;;;;;;;33.33;20.90;;;18.40;90.50;;;;;;5048863;28;20044;-80
2022/10/01 04:27:55;;;;;;;32.92;19.23;;;18.30;90.40;;;;;;5066623;28;20063;-80
2022/10/01 04:30:22;;;;;;;35.53;20.77;;;18.40;90.50;;;;;;5066065;28;20075;-81
2022/10/01 04:32:47;;;;;;;35.40;21.30;;;18.40;90.50;;;;;;5076749;28;20055;-80
2022/10/01 04:35:13;;;;;;;34.72;21.40;;;18.40;90.40;;;;;;5066087;28;20037;-82
2022/10/01 04:37:39;;;;;;;35.28;21.23;;;18.30;90.40;;;;;;5065971;28;20036;-82
2022/10/01 04:40:06;;;;;;;33.97;20.55;;;18.40;90.50;;;;;;5067058;28;20028;-86
2022/10/01 04:42:32;;;;;;;35.67;21.42;;;18.40;90.50;;;;;;5067126;28;20024;-86
2022/10/01 04:44:58;;;;;;;33.83;21.63;;;18.40;90.50;;;;;;5068228;28;20051;-92
2022/10/01 04:47:23;;;;;;;38.40;21.80;;;18.30;90.50;;;;;;5066566;28;20655;-87
2022/10/01 04:49:49;;;;;;;43.08;23.23;;;18.40;90.50;;;;;;5068054;28;20048;-90
2022/10/01 04:52:15;;;;;;;38.70;23.17;;;18.40;90.50;;;;;;5067329;28;20851;-90
2022/10/01 04:54:41;;;;;;;36.15;22.55;;;18.40;90.50;;;;;;5068374;28;20036;-91
2022/10/01 04:57:07;;;;;;;33.80;21.98;;;18.40;90.50;;;;;;5066909;28;20063;-87
2022/10/01 04:59:33;;;;;;;34.10;22.27;;;18.40;90.50;;;;;;5067848;28;20036;-92
2022/10/01 05:01:59;;;;;;;35.13;21.85;;;18.40;90.40;;;;;;5067757;28;20123;-90
2022/10/01 05:04:26;;;;;;;35.97;23.05;;;18.40;90.50;;;;;;5033200;28;20036;-88
2022/10/01 05:06:52;;;;;;;33.97;20.85;;;18.40;90.40;;;;;;5067900;28;20048;-93
2022/10/01 05:09:17;;;;;;;33.92;21.75;;;18.40;90.40;;;;;;5051437;28;20032;-92
2022/10/01 05:11:43;;;;;;;33.40;21.38;;;18.40;90.70;;;;;;5080967;28;20036;-82
2022/10/01 05:14:10;;;;;;;30.58;20.00;;;18.40;90.40;;;;;;5066344;28;20123;-89
2022/10/01 05:16:36;;;;;;;30.20;19.98;;;18.40;90.40;;;;;;5064007;28;20043;-84
2022/10/01 05:19:02;;;;;;;27.58;19.33;;;18.40;90.40;;;;;;5100013;28;20032;-91
2022/10/01 05:21:28;;;;;;;31.52;20.85;;;18.40;90.30;;;;;;5064374;28;20256;-89
2022/10/01 05:23:54;;;;;;;30.50;20.45;;;18.40;90.30;;;;;;5067696;28;20127;-89
2022/10/01 05:26:20;;;;;;;32.30;20.80;;;18.40;90.30;;;;;;5066240;28;20028;-88
2022/10/01 05:28:46;;;;;;;30.85;20.30;;;18.40;90.30;;;;;;5049401;28;20032;-90
2022/10/01 05:31:12;;;;;;;32.08;20.65;;;18.40;90.30;;;;;;5050127;28;20063;-88
2022/10/01 05:33:39;;;;;;;31.65;20.88;;;18.50;90.30;;;;;;5066360;28;20131;-92
2022/10/01 05:36:05;;;;;;;34.45;21.90;;;18.40;90.20;;;;;;5063731;28;20033;-80
2022/10/01 05:38:36;;;;;;;34.60;21.45;;;18.40;90.10;;;;;;5047672;28;20047;-80
2022/10/01 05:41:03;;;;;;;34.03;22.35;;;18.40;90.10;;;;;;5065261;28;20119;-73
2022/10/01 05:43:30;;;;;;;33.17;20.92;;;18.40;90.20;;;;;;5063817;28;20024;-73
2022/10/01 05:46:00;;;;;;;31.67;20.77;;;18.40;90.20;;;;;;5098835;28;20515;-73
2022/10/01 05:48:26;;;;;;;33.75;21.30;;;18.40;90.20;;;;;;5065638;28;20399;-72
2022/10/01 05:50:53;;;;;;;33.85;21.15;;;18.40;90.20;;;;;;5064511;28;20512;-73
2022/10/01 05:53:19;;;;;;;33.38;21.45;;;18.40;90.20;;;;;;5065817;28;20119;-72
2022/10/01 05:55:45;;;;;;;35.45;21.58;;;18.40;90.20;;;;;;5065028;28;20464;-81
2022/10/01 05:58:13;;;;;;;31.98;19.95;;;18.40;90.10;;;;;;5045520;28;20110;-82
2022/10/01 06:00:40;;;;;;;35.80;21.75;;;18.40;90.20;;;;;;5048067;28;20530;-76
2022/10/01 06:03:07;;;;;;;31.40;20.73;;;18.40;90.20;;;;;;5046407;28;20396;-76
2022/10/01 06:05:36;;;;;;;29.73;19.17;;;18.40;90.20;;;;;;5064665;28;20549;-76
2022/10/01 06:08:05;;;;;;;32.08;20.55;;;18.40;90.20;;;;;;5064274;28;20410;-79
2022/10/01 06:10:31;;;;;;;31.52;19.17;;;18.40;90.20;;;;;;5047983;28;20037;-80
2022/10/01 06:13:01;;;;;;;32.10;19.73;;;18.40;90.20;;;;;;5097495;28;20024;-78
2022/10/01 06:15:28;;;;;;;33.35;21.00;;;18.40;90.30;;;;;;5063710;28;20029;-78
2022/10/01 06:17:54;;;;;;;33.28;22.02;;;18.40;90.20;;;;;;5063505;28;20036;-77
2022/10/01 06:20:20;;;;;;;32.95;20.02;;;18.40;90.20;;;;;;5063110;28;20037;-76
2022/10/01 06:22:54;;;;;;;31.02;20.58;;;18.40;90.20;;;;;;5097063;28;20032;-76
2022/10/01 06:25:20;;;;;;;30.58;19.25;;;18.40;90.30;;;;;;5064193;28;20033;-78
2022/10/01 06:27:54;;;;;;;31.23;20.85;;;18.40;90.30;;;;;;5064663;28;20048;-76
2022/10/01 06:30:20;;;;;;;39.78;21.08;;;18.50;90.50;;;;;;5064418;28;20048;-77
2022/10/01 06:32:45;;;;;;;31.65;20.13;;;18.50;90.50;;;;;;5063678;28;20621;-74
2022/10/01 06:35:11;;;;;;;31.38;20.15;;;18.50;90.50;;;;;;5062998;28;20040;-74
2022/10/01 06:37:38;;;;;;;32.53;20.23;;;18.50;90.60;;;;;;5063568;28;20032;-75
2022/10/01 06:40:06;;;;;;;32.35;20.70;;;18.50;90.60;;;;;;5060875;28;21604;-77
2022/10/01 06:42:32;;;;;;;30.60;20.42;;;18.50;90.60;;;;;;5062936;28;20153;-75
2022/10/01 06:44:58;;;;;;;31.67;20.63;;;18.50;90.60;;;;;;5062340;28;20036;-75
2022/10/01 06:47:23;;;;;;;27.02;18.63;;;18.50;90.60;;;;;;5060088;28;20045;-76
2022/10/01 06:49:49;;;;;;;29.48;20.25;;;18.50;90.60;;;;;;5062381;28;20048;-75
2022/10/01 06:55:00;;;;;;;27.75;19.38;;;18.50;90.60;;;;;;5061710;28;20523;-74
2022/10/01 06:57:27;;;;;;;32.85;21.60;;;18.60;90.60;;;;;;5062479;28;20061;-75
2022/10/01 06:59:53;;;;;;;30.20;18.67;;;18.50;90.60;;;;;;5044881;28;20047;-75
2022/10/01 07:02:27;;;;;;;26.88;18.45;;;18.60;91.00;;;;;;5062154;28;20028;-76
2022/10/01 07:05:00;;;;;;;24.80;17.83;;;18.60;91.20;;;;;;5062036;28;20071;-75
2022/10/01 07:07:30;;;;;;;26.45;17.88;;;18.70;91.50;;;;;;5061147;28;20028;-78
2022/10/01 07:09:57;;;;;;;25.42;17.50;;;18.70;91.80;;;;;;5048032;28;20040;-80
2022/10/01 07:12:24;;;;;;;27.80;17.35;;;18.70;91.60;;;;;;5066731;28;20036;-72
2022/10/01 07:14:50;;;;;;;22.83;14.88;;;18.80;91.80;;;;;;5065371;28;20086;-76
2022/10/01 07:17:16;;;;;;;27.13;14.68;;;19.00;92.40;;;;;;5065751;28;20090;-76
2022/10/01 07:19:42;;;;;;;21.27;13.68;;;19.00;92.70;;;;;;5066113;28;20044;-71
2022/10/01 07:22:08;;;;;;;17.95;13.07;;;19.10;92.50;;;;;;5065143;28;20082;-71
2022/10/01 07:24:34;;;;;;;19.35;13.85;;;19.20;92.20;;;;;;5066138;28;20048;-84
2022/10/01 07:27:00;;;;;;;20.20;13.43;;;19.30;91.90;;;;;;5033203;28;20041;-70
2022/10/01 07:29:26;;;;;;;18.90;12.35;;;19.40;91.90;;;;;;5065633;28;20515;-71
2022/10/01 07:32:00;;;;;;;17.33;12.90;;;19.50;91.90;;;;;;5065015;28;20056;-73
2022/10/01 07:34:28;;;;;;;22.73;15.05;;;19.50;91.50;;;;;;5065140;28;20068;-74
2022/10/01 07:36:55;;;;;;;23.27;15.25;;;19.60;90.90;;;;;;5064852;28;20407;-74
2022/10/01 07:39:21;;;;;;;22.88;14.95;;;19.60;90.50;;;;;;5065884;28;20040;-74
2022/10/01 07:41:49;;;;;;;23.63;16.05;;;19.50;90.20;;;;;;5062603;28;20060;-74
2022/10/01 07:44:14;;;;;;;25.70;16.60;;;19.50;89.90;;;;;;5081171;28;20068;-76
2022/10/01 07:46:40;;;;;;;24.67;16.27;;;19.50;89.90;;;;;;5065221;28;20079;-75
2022/10/01 07:49:07;;;;;;;23.35;15.98;;;19.50;89.90;;;;;;5065178;28;20411;-73
2022/10/01 07:51:33;;;;;;;22.10;15.82;;;19.50;90.00;;;;;;5062838;28;20090;-74
2022/10/01 07:53:59;;;;;;;26.75;16.30;;;19.40;89.80;;;;;;5065447;28;20032;-73
2022/10/01 07:56:25;;;;;;;23.63;16.20;;;19.40;90.00;;;;;;5063059;28;20629;-71
2022/10/01 07:58:58;;;;;;;22.50;15.95;;;19.30;90.00;;;;;;5063509;28;20032;-75
2022/10/01 08:01:24;;;;;;;23.08;16.35;;;19.40;90.40;;;;;;5097564;28;21195;-73
2022/10/01 08:03:51;;;;;;;24.02;16.00;;;19.40;90.60;;;;;;5065175;28;20112;-74
2022/10/01 08:06:18;;;;;;;26.10;17.00;;;19.40;90.50;;;;;;5061725;28;20483;-73
2022/10/01 08:08:45;;;;;;;23.38;15.35;;;19.40;90.30;;;;;;5065082;28;20174;-72
2022/10/01 08:11:13;;;;;;;25.73;17.20;;;19.40;90.10;;;;;;5065555;28;20059;-73
2022/10/01 08:13:40;;;;;;;26.05;17.30;;;19.40;90.10;;;;;;5065534;28;20149;-73
2022/10/01 08:16:08;;;;;;;26.40;17.58;;;19.30;89.90;;;;;;5065758;28;20170;-73
2022/10/01 08:18:35;;;;;;;26.63;16.40;;;19.30;89.70;;;;;;5066386;28;20511;-73
2022/10/01 08:21:02;;;;;;;23.83;16.90;;;19.30;89.80;;;;;;5047187;28;20052;-73
2022/10/01 08:23:31;;;;;;;27.23;18.00;;;19.30;89.80;;;;;;5064812;28;20590;-73
2022/10/01 08:26:02;;;;;;;28.00;17.77;;;19.30;89.90;;;;;;5065154;28;20086;-74
2022/10/01 08:28:28;;;;;;;24.80;16.80;;;19.30;90.00;;;;;;5065902;28;20029;-75
2022/10/01 08:30:55;;;;;;;27.38;17.25;;;19.30;89.90;;;;;;5065239;28;20439;-73
2022/10/01 08:33:21;;;;;;;25.48;17.05;;;19.30;90.00;;;;;;5064796;28;20025;-72
2022/10/01 08:35:48;;;;;;;28.52;17.67;;;19.30;90.00;;;;;;5065372;28;20185;-73
2022/10/01 08:38:14;;;;;;;30.13;17.48;;;19.30;90.00;;;;;;5066062;28;20537;-73
2022/10/01 08:41:06;;;;;;;27.50;17.17;;;19.30;90.00;;;;;;5066535;28;20032;-73
2022/10/01 08:43:37;;;;;;;27.20;17.02;;;19.30;90.10;;;;;;5066980;28;20269;-75
2022/10/01 08:46:12;;;;;;;27.20;16.65;;;19.30;90.00;;;;;;5064338;28;20025;-74
2022/10/01 08:48:52;;;;;;;28.92;17.67;;;19.30;90.10;;;;;;5064782;28;20197;-73
2022/10/01 08:51:18;;;;;;;26.75;17.50;;;19.30;90.10;;;;;;5064965;28;20153;-73
2022/10/01 08:53:55;;;;;;;31.20;18.15;;;19.30;90.10;;;;;;5064863;28;20037;-73
2022/10/01 08:56:23;;;;;;;25.55;17.15;;;19.30;90.00;;;;;;5065567;28;20131;-73
2022/10/01 08:58:57;;;;;;;26.05;17.85;;;19.30;90.00;;;;;;5077934;28;20040;-73
2022/10/01 09:01:23;;;;;;;26.58;18.33;;;19.30;90.00;;;;;;5066782;28;20060;-75
2022/10/01 09:03:50;;;;;;;24.35;16.35;;;19.30;90.00;;;;;;5066789;28;20081;-76
2022/10/01 09:06:24;;;;;;;30.25;18.95;;;19.30;90.00;;;;;;5066741;28;20028;-75
2022/10/01 09:09:20;;;;;;;26.48;17.85;;;19.30;90.10;;;;;;5098114;28;20086;-75
2022/10/01 09:12:02;;;;;;;;;;;19.30;90.10;;;;;;5064171;28;20443;-75
2022/10/01 09:14:46;;;;;;;26.30;17.95;;;19.30;90.10;;;;;;5065022;28;20563;-73
2022/10/01 09:17:12;;;;;;;29.95;19.08;;;19.30;90.00;;;;;;5064751;28;20427;-73
2022/10/01 09:19:46;;;;;;;27.35;18.45;;;19.30;90.10;;;;;;5064040;28;20036;-73
2022/10/01 09:22:26;;;;;;;26.42;18.60;;;19.30;90.20;;;;;;5065314;28;20064;-73
2022/10/01 09:25:02;;;;;;;25.38;18.23;;;19.30;90.20;;;;;;5062499;28;20490;-72
2022/10/01 09:27:27;;;;;;;31.55;20.52;;;19.30;90.10;;;;;;5062373;28;20230;-73
2022/10/01 09:30:04;;;;;;;47.85;20.58;;;19.30;90.10;;;;;;5065412;28;20143;-73
2022/10/01 09:32:52;;;;;;;29.90;18.83;;;19.30;90.00;;;;;;5064422;28;20036;-73
2022/10/01 09:35:18;;;;;;;28.90;19.45;;;19.30;90.00;;;;;;5063076;28;20419;-73
2022/10/01 09:37:53;;;;;;;29.42;20.20;;;19.30;90.00;;;;;;5065236;28;20033;-73
2022/10/01 09:40:33;;;;;;;27.75;20.05;;;19.30;90.10;;;;;;5063184;28;20040;-74
2022/10/01 09:43:01;;;;;;;29.27;20.00;;;19.30;90.10;;;;;;5062549;28;20029;-75
2022/10/01 09:45:27;;;;;;;31.15;20.70;;;19.30;90.10;;;;;;5064142;28;20481;-75
2022/10/01 09:48:02;;;;;;;31.38;21.52;;;19.30;90.10;;;;;;5065698;28;20098;-75
2022/10/01 09:50:40;;;;;;;27.60;20.20;;;19.30;90.00;;;;;;5064663;28;20130;-73
2022/10/01 09:53:14;;;;;;;28.85;21.42;;;19.30;90.10;;;;;;5062584;28;20033;-76
2022/10/01 09:55:43;;;;;;;35.45;21.45;;;19.20;90.10;;;;;;5063321;28;20043;-74
2022/10/01 09:58:13;;;;;;;33.20;21.17;;;19.30;90.20;;;;;;5062720;28;20095;-74
2022/10/01 10:00:42;;;;;;;27.83;20.50;;;19.30;90.10;;;;;;5065103;28;20049;-73
2022/10/01 10:03:08;;;;;;;29.70;20.42;;;19.30;90.10;;;;;;5064456;28;20025;-75
2022/10/01 10:05:42;;;;;;;28.27;21.08;;;19.30;90.20;;;;;;5064349;28;20036;-73
2022/10/01 10:08:14;;;;;;;29.65;21.27;;;19.30;90.10;;;;;;5064215;28;20036;-74
2022/10/01 10:10:50;;;;;;;28.27;20.50;;;19.30;90.20;;;;;;5064007;28;20036;-72
2022/10/01 10:13:37;;;;;;;31.50;21.05;;;19.30;90.20;;;;;;5058842;28;20124;-75
2022/10/01 10:16:33;;;;;;;30.80;21.00;;;19.30;90.20;;;;;;5064843;28;20048;-75
2022/10/01 10:19:14;;;;;;;29.75;20.50;;;19.30;90.20;;;;;;5064240;28;20572;-74
2022/10/01 10:21:50;;;;;;;29.88;21.40;;;19.30;90.20;;;;;;5065041;28;20042;-75
2022/10/01 10:24:31;;;;;;;30.80;21.20;;;19.30;90.30;;;;;;5065644;28;20518;-73
2022/10/01 10:26:59;;;;;;;30.88;21.02;;;19.30;90.30;;;;;;5065855;28;20050;-76
2022/10/01 10:29:33;;;;;;;28.80;20.42;;;19.30;90.30;;;;;;5070808;28;20040;-72
2022/10/01 10:32:09;;;;;;;29.70;21.03;;;19.30;90.30;;;;;;5064130;28;20503;-74
2022/10/01 10:34:38;;;;;;;28.25;19.55;;;19.30;90.30;;;;;;5064866;28;20839;-76
2022/10/01 10:37:14;;;;;;;27.05;20.35;;;19.30;90.20;;;;;;5063353;28;20051;-72
2022/10/01 10:39:45;;;;;;;31.15;21.50;;;19.40;90.30;;;;;;5064632;28;20040;-81
2022/10/01 10:42:14;;;;;;;28.45;20.30;;;19.40;90.30;;;;;;5064124;28;20043;-76
2022/10/01 10:44:44;;;;;;;27.25;19.60;;;19.40;90.30;;;;;;5099780;28;20033;-76
2022/10/01 10:47:15;;;;;;;25.75;19.02;;;19.40;90.20;;;;;;5080631;28;20075;-76
2022/10/01 10:49:47;;;;;;;26.55;19.77;;;19.40;90.20;;;;;;5067864;28;20449;-76
2022/10/01 10:52:34;;;;;;;28.50;19.48;;;19.40;90.50;;;;;;5066992;28;20036;-76
2022/10/01 10:55:21;;;;;;;28.35;20.38;;;19.40;90.20;;;;;;5067990;28;20060;-75
2022/10/01 10:57:48;;;;;;;26.20;19.38;;;19.40;90.20;;;;;;5066110;28;20506;-77
2022/10/01 11:00:16;;;;;;;26.50;19.90;;;19.40;90.30;;;;;;5067080;28;20124;-83
2022/10/01 11:02:59;;;;;;;27.50;19.73;;;19.40;90.30;;;;;;5079205;28;20129;-76
2022/10/01 11:05:28;;;;;;;26.88;18.85;;;19.40;90.30;;;;;;5068654;28;20036;-77
2022/10/01 11:07:58;;;;;;;27.10;19.60;;;19.40;90.20;;;;;;5069887;28;20064;-77
2022/10/01 11:10:36;;;;;;;27.60;19.27;;;19.50;90.40;;;;;;5067278;28;20078;-77
2022/10/01 11:13:25;;;;;;;30.60;19.35;;;19.40;90.40;;;;;;5068260;28;20115;-77
2022/10/01 11:16:03;;;;;;;22.85;17.23;;;19.50;90.60;;;;;;5066590;28;20047;-77
2022/10/01 11:18:57;;;;;;;25.75;19.27;;;19.40;90.50;;;;;;5068081;28;20032;-75
2022/10/01 11:21:50;;;;;;;27.25;18.85;;;19.40;90.70;;;;;;5067346;28;20098;-78
2022/10/01 11:24:58;;;;;;;22.55;18.02;;;19.40;90.60;;;;;;5067619;28;20040;-77
2022/10/01 11:27:35;;;;;;;20.85;16.38;;;19.50;90.60;;;;;;5066224;28;20037;-77
2022/10/01 11:30:15;;;;;;;23.67;17.15;;;19.50;90.80;;;;;;5067168;28;20037;-78
2022/10/01 11:32:46;;;;;;;19.50;15.60;;;19.50;90.70;;;;;;5067802;28;20521;-77
2022/10/01 11:35:24;;;;;;;20.58;15.85;;;19.50;90.70;;;;;;5066487;28;20028;-77
2022/10/01 11:38:15;;;;;;;19.73;15.50;;;19.50;90.60;;;;;;5066120;28;20081;-77
2022/10/01 11:40:46;;;;;;;18.52;14.50;;;19.50;90.70;;;;;;5065608;28;20056;-76
2022/10/01 11:43:30;;;;;;;18.75;14.43;;;19.60;90.60;;;;;;5066172;28;20044;-78
2022/10/01 11:46:05;;;;;;;17.67;14.02;;;19.60;90.70;;;;;;5067879;28;20513;-76
2022/10/01 11:48:40;;;;;;;21.50;14.57;;;19.70;90.80;;;;;;5101505;28;20038;-76
2022/10/01 11:51:16;;;;;;;16.95;13.23;;;19.70;90.70;;;;;;5072584;28;20032;-76
2022/10/01 11:53:55;;;;;;;18.92;14.68;;;19.70;90.60;;;;;;5071439;28;20098;-77
2022/10/01 11:59:40;;;;;;;16.83;13.10;;;19.80;90.60;;;;;;5072803;28;20419;-78
2022/10/01 12:02:19;;;;;;;17.10;13.32;;;19.80;90.60;;;;;;5069441;28;20124;-77
2022/10/01 12:05:04;;;;;;;17.48;13.38;;;19.80;90.40;;;;;;5068548;28;20028;-77
2022/10/01 12:08:05;;;;;;;19.10;13.13;;;19.80;90.30;;;;;;5066217;28;20595;-77
2022/10/01 12:10:40;;;;;;;18.70;13.02;;;19.90;90.30;;;;;;5066987;28;20123;-75
2022/10/01 12:13:24;;;;;;;16.55;12.77;;;19.90;90.20;;;;;;5066391;28;20024;-76
2022/10/01 12:15:52;;;;;;;16.02;12.45;;;19.90;90.20;;;;;;5066300;28;20555;-76
2022/10/01 12:18:30;;;;;;;17.73;13.23;;;19.90;90.20;;;;;;5061106;28;20081;-76
2022/10/01 12:21:07;;;;;;;17.00;12.40;;;19.90;90.10;;;;;;5066510;28;20044;-76
2022/10/01 12:23:42;;;;;;;16.20;12.60;;;19.90;90.10;;;;;;5066341;28;20429;-76
2022/10/01 12:26:30;;;;;;;14.82;11.52;;;19.90;90.00;;;;;;5066224;28;20036;-76
2022/10/01 12:29:20;;;;;;;17.15;12.50;;;20.00;90.00;;;;;;5061954;28;20043;-76
2022/10/01 12:31:46;;;;;;;18.73;12.40;;;20.00;89.90;;;;;;5064693;28;20036;-76
2022/10/01 12:34:13;;;;;;;16.45;12.88;;;19.90;89.60;;;;;;5066761;28;20560;-76
2022/10/01 12:36:39;;;;;;;16.25;12.50;;;20.00;89.80;;;;;;5065671;28;20040;-76
2022/10/01 12:39:07;;;;;;;15.80;11.55;;;20.00;89.70;;;;;;5078289;28;20044;-75
2022/10/01 12:41:54;;;;;;;19.80;11.38;;;20.00;89.70;;;;;;5066073;28;20036;-78
2022/10/01 12:44:53;;;;;;;13.93;11.32;;;20.00;89.70;;;;;;5064881;28;20043;-76
2022/10/01 12:47:56;;;;;;;13.90;11.48;;;20.00;89.50;;;;;;5066827;28;20040;-76
2022/10/01 12:50:50;;;;;;;17.33;12.07;;;20.00;89.40;;;;;;5078496;28;20086;-75
2022/10/01 12:53:44;;;;;;;15.82;11.82;;;20.00;89.30;;;;;;5065269;28;20032;-76
2022/10/01 12:56:33;;;;;;;17.77;12.27;;;20.00;89.40;;;;;;5064872;28;20082;-75